createdAt,value
2024-02-22T00:00:13.489Z,0.00
2024-02-22T00:01:13.496Z,0.00
2024-02-22T00:02:13.571Z,0.00
2024-02-22T00:03:13.465Z,0.00
2024-02-22T00:04:13.577Z,0.00
2024-02-22T00:05:13.641Z,0.00
2024-02-22T00:06:13.428Z,0.00
2024-02-22T00:07:13.450Z,0.00
2024-02-22T00:08:13.442Z,0.00
2024-02-22T00:09:13.397Z,0.00
2024-02-22T00:10:13.360Z,0.00
2024-02-22T00:11:13.423Z,0.00
2024-02-22T00:12:13.378Z,0.00
2024-02-22T00:13:13.326Z,0.00
2024-02-22T00:14:13.351Z,0.00
2024-02-22T00:15:13.315Z,0.00
2024-02-22T00:16:13.285Z,0.00
2024-02-22T00:17:13.368Z,0.00
2024-02-22T00:18:13.419Z,0.00
2024-02-22T00:19:13.317Z,0.00
2024-02-22T00:20:13.250Z,0.00
2024-02-22T00:21:13.246Z,0.00
2024-02-22T00:22:13.254Z,0.00
2024-02-22T00:23:13.287Z,0.00
2024-02-22T00:24:13.192Z,0.00
2024-02-22T00:25:13.160Z,0.00
2024-02-22T00:26:13.240Z,0.00
2024-02-22T00:27:13.138Z,0.00
2024-02-22T00:28:13.113Z,0.00
2024-02-22T00:29:13.221Z,0.00
2024-02-22T00:30:13.116Z,0.00
2024-02-22T00:31:13.097Z,0.00
2024-02-22T00:32:13.092Z,0.00
2024-02-22T00:33:13.122Z,0.00
2024-02-22T00:34:13.072Z,0.00
2024-02-22T00:35:13.088Z,0.00
2024-02-22T00:36:13.042Z,0.00
2024-02-22T00:37:13.007Z,0.00
2024-02-22T00:38:13.047Z,0.00
2024-02-22T00:39:12.993Z,0.00
2024-02-22T00:40:13.013Z,0.00
2024-02-22T00:41:13.117Z,0.00
2024-02-22T00:42:12.938Z,0.00
2024-02-22T00:43:12.919Z,0.00
2024-02-22T00:44:12.983Z,0.00
2024-02-22T00:45:12.922Z,0.00
2024-02-22T00:46:12.917Z,0.00
2024-02-22T00:47:12.987Z,0.00
2024-02-22T00:48:12.966Z,0.00
2024-02-22T00:49:12.918Z,0.00
2024-02-22T00:50:12.994Z,0.00
2024-02-22T00:51:12.832Z,0.00
2024-02-22T00:52:12.816Z,0.00
2024-02-22T00:53:12.932Z,0.00
2024-02-22T00:54:12.783Z,0.00
2024-02-22T00:55:12.779Z,0.00
2024-02-22T00:56:12.854Z,0.00
2024-02-22T00:57:12.757Z,0.00
2024-02-22T00:58:12.754Z,0.00
2024-02-22T00:59:12.801Z,0.00
2024-02-22T01:00:12.785Z,0.00
2024-02-22T01:01:12.743Z,0.00
2024-02-22T01:02:12.747Z,0.00
2024-02-22T01:03:12.677Z,0.00
2024-02-22T01:04:12.719Z,0.00
2024-02-22T01:05:12.723Z,0.00
2024-02-22T01:06:12.792Z,0.00
2024-02-22T01:07:12.610Z,0.00
2024-02-22T01:08:12.677Z,0.00
2024-02-22T01:09:12.606Z,0.00
2024-02-22T01:10:12.557Z,0.00
2024-02-22T01:11:12.656Z,0.00
2024-02-22T01:12:12.751Z,0.00
2024-02-22T01:13:12.531Z,0.00
2024-02-22T01:14:12.630Z,0.00
2024-02-22T01:15:12.505Z,0.00
2024-02-22T01:16:12.480Z,0.00
2024-02-22T01:17:12.613Z,0.00
2024-02-22T01:18:12.704Z,0.00
2024-02-22T01:19:12.552Z,0.00
2024-02-22T01:20:12.903Z,0.00
2024-02-22T01:21:12.451Z,0.00
2024-02-22T01:22:12.406Z,0.00
2024-02-22T01:23:12.433Z,0.00
2024-02-22T01:24:12.369Z,0.00
2024-02-22T01:25:12.382Z,0.00
2024-02-22T01:26:12.443Z,0.00
2024-02-22T01:27:12.351Z,0.00
2024-02-22T01:28:12.357Z,0.00
2024-02-22T01:29:12.381Z,0.00
2024-02-22T01:30:12.298Z,0.00
2024-02-22T01:31:12.306Z,0.00
2024-02-22T01:32:12.399Z,0.00
2024-02-22T01:33:12.329Z,0.00
2024-02-22T01:34:12.304Z,0.00
2024-02-22T01:35:12.378Z,0.00
2024-02-22T01:36:12.217Z,0.00
2024-02-22T01:37:12.228Z,0.00
2024-02-22T01:38:12.258Z,0.00
2024-02-22T01:39:12.194Z,0.00
2024-02-22T01:40:12.200Z,0.00
2024-02-22T01:41:12.269Z,0.00
2024-02-22T01:42:12.166Z,0.00
2024-02-22T01:43:12.176Z,0.00
2024-02-22T01:44:12.214Z,0.00
2024-02-22T01:45:12.145Z,0.00
2024-02-22T01:46:12.105Z,0.00
2024-02-22T01:47:12.212Z,0.00
2024-02-22T01:48:12.152Z,0.00
2024-02-22T01:49:12.118Z,0.00
2024-02-22T01:50:12.138Z,0.00
2024-02-22T01:51:12.046Z,0.00
2024-02-22T01:52:12.033Z,0.00
2024-02-22T01:53:12.026Z,0.00
2024-02-22T01:54:12.020Z,0.00
2024-02-22T01:55:12.018Z,0.00
2024-02-22T01:56:12.063Z,0.00
2024-02-22T01:57:11.963Z,0.00
2024-02-22T01:58:11.937Z,0.00
2024-02-22T01:59:12.065Z,0.00
2024-02-22T02:00:11.914Z,0.00
2024-02-22T02:01:11.966Z,0.00
2024-02-22T02:02:11.945Z,0.00
2024-02-22T02:03:11.937Z,0.00
2024-02-22T02:04:11.848Z,0.00
2024-02-22T02:05:11.892Z,0.00
2024-02-22T02:06:11.909Z,0.00
2024-02-22T02:07:11.813Z,0.00
2024-02-22T02:08:11.895Z,0.00
2024-02-22T02:09:11.796Z,0.00
2024-02-22T02:10:11.765Z,0.00
2024-02-22T02:11:11.957Z,0.00
2024-02-22T02:12:11.796Z,0.00
2024-02-22T02:13:11.794Z,0.00
2024-02-22T02:14:11.790Z,0.00
2024-02-22T02:15:11.753Z,0.00
2024-02-22T02:16:11.734Z,0.00
2024-02-22T02:17:11.804Z,0.00
2024-02-22T02:18:11.800Z,0.00
2024-02-22T02:19:11.722Z,0.00
2024-02-22T02:20:11.762Z,0.00
2024-02-22T02:21:11.629Z,0.00
2024-02-22T02:22:11.622Z,0.00
2024-02-22T02:23:11.716Z,0.00
2024-02-22T02:24:11.620Z,0.00
2024-02-22T02:25:11.598Z,0.00
2024-02-22T02:26:11.722Z,0.00
2024-02-22T02:27:11.568Z,0.00
2024-02-22T02:28:11.542Z,0.00
2024-02-22T02:29:11.569Z,0.00
2024-02-22T02:30:11.546Z,0.00
2024-02-22T02:31:11.494Z,0.00
2024-02-22T02:32:11.504Z,0.00
2024-02-22T02:33:11.603Z,0.00
2024-02-22T02:34:11.571Z,0.00
2024-02-22T02:35:11.512Z,0.00
2024-02-22T02:36:11.450Z,0.00
2024-02-22T02:37:11.408Z,0.00
2024-02-22T02:38:11.602Z,0.00
2024-02-22T02:39:11.440Z,0.00
2024-02-22T02:40:11.384Z,0.00
2024-02-22T02:41:11.454Z,0.00
2024-02-22T02:42:11.369Z,0.00
2024-02-22T02:43:11.338Z,0.00
2024-02-22T02:44:11.446Z,0.00
2024-02-22T02:45:11.349Z,0.00
2024-02-22T02:46:11.318Z,0.00
2024-02-22T02:47:11.483Z,0.00
2024-02-22T02:48:11.330Z,0.00
2024-02-22T02:49:11.339Z,0.00
2024-02-22T02:50:11.357Z,0.00
2024-02-22T02:51:11.251Z,0.00
2024-02-22T02:52:11.220Z,0.00
2024-02-22T02:53:11.253Z,0.00
2024-02-22T02:54:11.188Z,0.00
2024-02-22T02:55:11.196Z,0.00
2024-02-22T02:56:11.327Z,0.00
2024-02-22T02:57:11.174Z,0.00
2024-02-22T02:58:11.174Z,0.00
2024-02-22T02:59:11.198Z,0.00
2024-02-22T03:00:11.121Z,0.00
2024-02-22T03:01:11.106Z,0.00
2024-02-22T03:02:11.128Z,0.00
2024-02-22T03:03:11.096Z,0.00
2024-02-22T03:04:11.098Z,0.00
2024-02-22T03:05:11.147Z,0.00
2024-02-22T03:06:11.108Z,0.00
2024-02-22T03:07:11.027Z,0.00
2024-02-22T03:08:11.200Z,0.00
2024-02-22T03:09:11.007Z,0.00
2024-02-22T03:10:10.980Z,0.00
2024-02-22T03:11:11.055Z,0.00
2024-02-22T03:12:11.010Z,0.00
2024-02-22T03:13:10.964Z,0.00
2024-02-22T03:14:11.341Z,0.00
2024-02-22T03:15:10.910Z,0.00
2024-02-22T03:16:10.915Z,0.00
2024-02-22T03:17:11.033Z,0.00
2024-02-22T03:18:11.063Z,0.00
2024-02-22T03:19:11.034Z,0.00
2024-02-22T03:20:10.971Z,0.00
2024-02-22T03:21:10.851Z,0.00
2024-02-22T03:22:10.845Z,0.00
2024-02-22T03:23:10.964Z,0.00
2024-02-22T03:24:10.801Z,0.00
2024-02-22T03:25:10.791Z,0.00
2024-02-22T03:26:10.831Z,0.00
2024-02-22T03:27:10.775Z,0.00
2024-02-22T03:28:10.737Z,0.00
2024-02-22T03:29:10.738Z,0.00
2024-02-22T03:30:10.719Z,0.00
2024-02-22T03:31:10.718Z,0.00
2024-02-22T03:32:10.752Z,0.00
2024-02-22T03:33:10.735Z,0.00
2024-02-22T03:34:10.723Z,0.00
2024-02-22T03:35:10.694Z,0.00
2024-02-22T03:36:10.650Z,0.00
2024-02-22T03:37:10.630Z,0.00
2024-02-22T03:38:10.664Z,0.00
2024-02-22T03:39:10.601Z,0.00
2024-02-22T03:40:10.607Z,0.00
2024-02-22T03:41:10.641Z,0.00
2024-02-22T03:42:10.558Z,0.00
2024-02-22T03:43:10.553Z,0.00
2024-02-22T03:44:10.673Z,0.00
2024-02-22T03:45:10.533Z,0.00
2024-02-22T03:46:10.522Z,0.00
2024-02-22T03:47:10.558Z,0.00
2024-02-22T03:48:10.535Z,0.00
2024-02-22T03:49:10.507Z,0.00
2024-02-22T03:50:10.607Z,0.00
2024-02-22T03:51:10.451Z,0.00
2024-02-22T03:52:10.431Z,0.00
2024-02-22T03:53:10.470Z,0.00
2024-02-22T03:54:10.418Z,0.00
2024-02-22T03:55:10.393Z,0.00
2024-02-22T03:56:10.432Z,0.00
2024-02-22T03:57:10.359Z,0.00
2024-02-22T03:58:10.347Z,0.00
2024-02-22T03:59:10.418Z,0.00
2024-02-22T04:00:10.326Z,0.00
2024-02-22T04:01:10.343Z,0.00
2024-02-22T04:02:10.338Z,0.00
2024-02-22T04:03:10.285Z,0.00
2024-02-22T04:04:10.322Z,0.00
2024-02-22T04:05:10.330Z,0.00
2024-02-22T04:06:10.308Z,0.00
2024-02-22T04:07:10.224Z,0.00
2024-02-22T04:08:10.325Z,0.00
2024-02-22T04:09:10.216Z,0.00
2024-02-22T04:10:10.199Z,0.00
2024-02-22T04:11:10.279Z,0.00
2024-02-22T04:12:10.192Z,0.00
2024-02-22T04:13:10.199Z,0.00
2024-02-22T04:14:10.206Z,0.00
2024-02-22T04:15:10.115Z,0.00
2024-02-22T04:16:10.124Z,0.00
2024-02-22T04:17:10.244Z,0.00
2024-02-22T04:18:10.197Z,0.00
2024-02-22T04:19:10.181Z,0.00
2024-02-22T04:20:10.108Z,0.00
2024-02-22T04:21:10.061Z,0.00
2024-02-22T04:22:10.046Z,0.00
2024-02-22T04:23:10.084Z,0.00
2024-02-22T04:24:10.021Z,0.00
2024-02-22T04:25:09.991Z,0.00
2024-02-22T04:26:10.019Z,0.00
2024-02-22T04:27:09.974Z,0.00
2024-02-22T04:28:09.976Z,0.00
2024-02-22T04:29:10.005Z,0.00
2024-02-22T04:30:09.931Z,0.00
2024-02-22T04:31:09.912Z,0.00
2024-02-22T04:32:09.955Z,0.00
2024-02-22T04:33:09.971Z,0.00
2024-02-22T04:34:09.928Z,0.00
2024-02-22T04:35:10.125Z,0.00
2024-02-22T04:36:09.872Z,0.00
2024-02-22T04:37:09.853Z,0.00
2024-02-22T04:38:09.895Z,0.00
2024-02-22T04:39:09.890Z,0.00
2024-02-22T04:40:09.803Z,0.00
2024-02-22T04:41:09.835Z,0.00
2024-02-22T04:42:09.808Z,0.00
2024-02-22T04:43:09.770Z,0.00
2024-02-22T04:44:09.820Z,0.00
2024-02-22T04:45:09.735Z,0.00
2024-02-22T04:46:09.719Z,0.00
2024-02-22T04:47:09.788Z,0.00
2024-02-22T04:48:09.881Z,0.00
2024-02-22T04:49:09.759Z,0.00
2024-02-22T04:50:09.750Z,0.00
2024-02-22T04:51:09.665Z,0.00
2024-02-22T04:52:09.667Z,0.00
2024-02-22T04:53:09.718Z,0.00
2024-02-22T04:54:09.654Z,0.00
2024-02-22T04:55:09.626Z,0.00
2024-02-22T04:56:09.660Z,0.00
2024-02-22T04:57:09.580Z,0.00
2024-02-22T04:58:09.585Z,0.00
2024-02-22T04:59:09.635Z,0.00
2024-02-22T05:00:09.645Z,0.00
2024-02-22T05:01:09.607Z,0.00
2024-02-22T05:02:09.652Z,0.00
2024-02-22T05:03:09.497Z,0.00
2024-02-22T05:04:09.676Z,0.00
2024-02-22T05:05:09.572Z,0.00
2024-02-22T05:06:09.502Z,0.00
2024-02-22T05:07:09.456Z,0.00
2024-02-22T05:08:09.507Z,0.00
2024-02-22T05:09:09.433Z,0.00
2024-02-22T05:10:09.438Z,0.00
2024-02-22T05:11:09.510Z,0.00
2024-02-22T05:12:09.444Z,0.00
2024-02-22T05:13:09.391Z,0.00
2024-02-22T05:14:09.461Z,0.00
2024-02-22T05:15:09.362Z,0.00
2024-02-22T05:16:09.329Z,0.00
2024-02-22T05:17:09.375Z,0.00
2024-02-22T05:18:09.483Z,0.00
2024-02-22T05:19:09.398Z,0.00
2024-02-22T05:20:09.405Z,0.00
2024-02-22T05:21:09.283Z,0.00
2024-02-22T05:22:09.254Z,0.00
2024-02-22T05:23:09.305Z,0.00
2024-02-22T05:24:09.266Z,0.00
2024-02-22T05:25:09.216Z,0.00
2024-02-22T05:26:09.262Z,0.00
2024-02-22T05:27:09.190Z,0.00
2024-02-22T05:28:09.173Z,0.00
2024-02-22T05:29:09.303Z,0.00
2024-02-22T05:30:09.170Z,0.00
2024-02-22T05:31:09.148Z,0.00
2024-02-22T05:32:09.196Z,0.00
2024-02-22T05:33:09.202Z,0.00
2024-02-22T05:34:09.203Z,0.00
2024-02-22T05:35:09.172Z,0.00
2024-02-22T05:36:09.117Z,0.00
2024-02-22T05:37:09.066Z,0.00
2024-02-22T05:38:09.169Z,0.00
2024-02-22T05:39:09.041Z,0.00
2024-02-22T05:40:09.028Z,0.00
2024-02-22T05:41:09.056Z,0.00
2024-02-22T05:42:08.992Z,0.00
2024-02-22T05:43:08.994Z,0.00
2024-02-22T05:44:08.990Z,0.00
2024-02-22T05:45:08.957Z,0.00
2024-02-22T05:46:09.024Z,0.00
2024-02-22T05:47:09.034Z,0.00
2024-02-22T05:48:09.064Z,0.00
2024-02-22T05:49:09.135Z,0.00
2024-02-22T05:50:08.948Z,0.00
2024-02-22T05:51:08.888Z,0.00
2024-02-22T05:52:08.888Z,0.00
2024-02-22T05:53:08.942Z,0.00
2024-02-22T05:54:08.852Z,0.00
2024-02-22T05:55:08.829Z,0.00
2024-02-22T05:56:08.839Z,0.00
2024-02-22T05:57:11.637Z,0.00
2024-02-22T05:58:08.801Z,0.00
2024-02-22T05:59:08.816Z,0.00
2024-02-22T06:00:08.771Z,4.00
2024-02-22T06:01:08.884Z,4.00
2024-02-22T06:02:08.853Z,4.00
2024-02-22T06:03:10.634Z,0.00
2024-02-22T06:04:08.748Z,4.00
2024-02-22T06:05:08.890Z,4.00
2024-02-22T06:06:08.699Z,4.00
2024-02-22T06:07:08.717Z,4.00
2024-02-22T06:08:08.732Z,4.00
2024-02-22T06:09:08.651Z,4.00
2024-02-22T06:10:08.650Z,4.00
2024-02-22T06:11:08.674Z,8.00
2024-02-22T06:12:08.612Z,8.00
2024-02-22T06:13:08.740Z,8.00
2024-02-22T06:14:08.594Z,4.00
2024-02-22T06:15:08.581Z,8.00
2024-02-22T06:16:08.571Z,8.00
2024-02-22T06:17:08.567Z,12.00
2024-02-22T06:18:08.588Z,12.00
2024-02-22T06:19:08.579Z,12.00
2024-02-22T06:20:08.539Z,12.00
2024-02-22T06:21:08.471Z,12.00
2024-02-22T06:22:08.500Z,12.00
2024-02-22T06:23:08.489Z,16.00
2024-02-22T06:24:08.487Z,16.00
2024-02-22T06:25:08.423Z,16.00
2024-02-22T06:26:08.464Z,16.00
2024-02-22T06:27:08.413Z,20.00
2024-02-22T06:28:08.415Z,20.00
2024-02-22T06:29:08.402Z,20.00
2024-02-22T06:30:08.387Z,20.00
2024-02-22T06:31:08.356Z,20.00
2024-02-22T06:32:08.386Z,20.00
2024-02-22T06:33:08.381Z,20.00
2024-02-22T06:34:08.379Z,24.00
2024-02-22T06:35:08.394Z,28.00
2024-02-22T06:36:08.291Z,28.00
2024-02-22T06:37:08.278Z,32.00
2024-02-22T06:38:08.337Z,36.00
2024-02-22T06:39:08.251Z,40.00
2024-02-22T06:40:08.246Z,40.00
2024-02-22T06:41:08.333Z,44.00
2024-02-22T06:42:08.219Z,48.00
2024-02-22T06:43:08.216Z,52.00
2024-02-22T06:44:08.255Z,60.00
2024-02-22T06:45:08.168Z,60.00
2024-02-22T06:46:08.162Z,68.00
2024-02-22T06:47:08.166Z,76.00
2024-02-22T06:48:08.211Z,84.00
2024-02-22T06:49:08.189Z,96.00
2024-02-22T06:50:08.179Z,112.00
2024-02-22T06:51:08.130Z,128.00
2024-02-22T06:52:08.092Z,144.00
2024-02-22T06:53:08.156Z,164.00
2024-02-22T06:54:08.073Z,184.00
2024-02-22T06:55:08.038Z,204.00
2024-02-22T06:56:08.042Z,224.00
2024-02-22T06:57:08.028Z,240.00
2024-02-22T06:58:08.000Z,260.00
2024-02-22T06:59:08.085Z,284.00
2024-02-22T07:00:07.996Z,300.00
2024-02-22T07:01:08.059Z,312.00
2024-02-22T07:02:08.001Z,316.00
2024-02-22T07:03:07.929Z,324.00
2024-02-22T07:04:07.958Z,320.00
2024-02-22T07:05:07.937Z,308.00
2024-02-22T07:06:08.063Z,300.00
2024-02-22T07:07:07.932Z,284.00
2024-02-22T07:08:07.964Z,264.00
2024-02-22T07:09:07.852Z,232.00
2024-02-22T07:10:07.928Z,212.00
2024-02-22T07:11:07.940Z,192.00
2024-02-22T07:12:07.914Z,176.00
2024-02-22T07:13:07.813Z,164.00
2024-02-22T07:14:07.848Z,160.00
2024-02-22T07:15:07.801Z,148.00
2024-02-22T07:16:07.807Z,144.00
2024-02-22T07:17:07.789Z,148.00
2024-02-22T07:18:07.902Z,152.00
2024-02-22T07:19:07.851Z,160.00
2024-02-22T07:20:07.878Z,168.00
2024-02-22T07:21:07.721Z,172.00
2024-02-22T07:22:07.688Z,176.00
2024-02-22T07:23:07.712Z,180.00
2024-02-22T07:24:07.654Z,184.00
2024-02-22T07:25:07.779Z,188.00
2024-02-22T07:26:07.658Z,196.00
2024-02-22T07:27:07.625Z,200.00
2024-02-22T07:28:07.611Z,204.00
2024-02-22T07:29:11.563Z,208.00
2024-02-22T07:30:08.599Z,212.00
2024-02-22T07:31:07.566Z,216.00
2024-02-22T07:32:07.588Z,216.00
2024-02-22T07:33:07.703Z,216.00
2024-02-22T07:34:07.740Z,212.00
2024-02-22T07:35:07.584Z,212.00
2024-02-22T07:36:10.486Z,204.00
2024-02-22T07:37:07.504Z,200.00
2024-02-22T07:38:07.525Z,192.00
2024-02-22T07:39:07.600Z,192.00
2024-02-22T07:40:07.466Z,188.00
2024-02-22T07:41:07.467Z,192.00
2024-02-22T07:42:07.436Z,200.00
2024-02-22T07:43:07.412Z,216.00
2024-02-22T07:44:10.945Z,224.00
2024-02-22T07:45:07.401Z,240.00
2024-02-22T07:46:07.499Z,260.00
2024-02-22T07:47:07.376Z,276.00
2024-02-22T07:48:07.530Z,292.00
2024-02-22T07:49:07.597Z,312.00
2024-02-22T07:50:07.338Z,332.00
2024-02-22T07:51:07.306Z,352.00
2024-02-22T07:52:07.298Z,368.00
2024-02-22T07:53:07.438Z,376.00
2024-02-22T07:54:07.283Z,376.00
2024-02-22T07:55:07.328Z,384.00
2024-02-22T07:56:07.281Z,396.00
2024-02-22T07:57:07.238Z,416.00
2024-02-22T07:58:07.333Z,444.00
2024-02-22T07:59:07.246Z,468.00
2024-02-22T08:00:07.208Z,496.00
2024-02-22T08:01:07.233Z,520.00
2024-02-22T08:02:07.209Z,544.00
2024-02-22T08:03:07.178Z,564.00
2024-02-22T08:04:09.875Z,588.00
2024-02-22T08:05:07.483Z,608.00
2024-02-22T08:06:07.115Z,604.00
2024-02-22T08:07:07.151Z,620.00
2024-02-22T08:08:07.116Z,640.00
2024-02-22T08:09:07.118Z,668.00
2024-02-22T08:10:07.153Z,692.00
2024-02-22T08:11:07.100Z,680.00
2024-02-22T08:12:07.092Z,684.00
2024-02-22T08:13:07.053Z,688.00
2024-02-22T08:14:07.047Z,684.00
2024-02-22T08:15:06.999Z,668.00
2024-02-22T08:16:07.097Z,652.00
2024-02-22T08:17:06.991Z,648.00
2024-02-22T08:18:07.136Z,660.00
2024-02-22T08:19:06.963Z,660.00
2024-02-22T08:20:07.172Z,652.00
2024-02-22T08:21:07.061Z,636.00
2024-02-22T08:22:06.900Z,628.00
2024-02-22T08:23:06.959Z,620.00
2024-02-22T08:24:06.870Z,608.00
2024-02-22T08:25:06.864Z,592.00
2024-02-22T08:26:06.936Z,564.00
2024-02-22T08:27:06.975Z,540.00
2024-02-22T08:28:07.837Z,520.00
2024-02-22T08:29:06.914Z,512.00
2024-02-22T08:30:06.814Z,504.00
2024-02-22T08:31:06.817Z,504.00
2024-02-22T08:32:06.803Z,508.00
2024-02-22T08:33:06.855Z,512.00
2024-02-22T08:34:06.962Z,520.00
2024-02-22T08:35:06.812Z,520.00
2024-02-22T08:36:06.721Z,532.00
2024-02-22T08:37:06.697Z,556.00
2024-02-22T08:38:06.777Z,576.00
2024-02-22T08:39:06.692Z,584.00
2024-02-22T08:40:15.998Z,600.00
2024-02-22T08:41:07.794Z,608.00
2024-02-22T08:42:06.643Z,600.00
2024-02-22T08:43:06.639Z,584.00
2024-02-22T08:44:06.988Z,568.00
2024-02-22T08:45:06.616Z,572.00
2024-02-22T08:46:06.616Z,580.00
2024-02-22T08:47:06.627Z,588.00
2024-02-22T08:48:06.790Z,600.00
2024-02-22T08:49:06.890Z,616.00
2024-02-22T08:50:06.570Z,636.00
2024-02-22T08:51:06.548Z,648.00
2024-02-22T08:52:06.513Z,648.00
2024-02-22T08:53:06.623Z,636.00
2024-02-22T08:54:06.491Z,632.00
2024-02-22T08:55:06.502Z,624.00
2024-02-22T08:56:06.541Z,624.00
2024-02-22T08:57:06.450Z,644.00
2024-02-22T08:58:06.421Z,688.00
2024-02-22T08:59:06.591Z,732.00
2024-02-22T09:00:06.413Z,784.00
2024-02-22T09:01:06.471Z,844.00
2024-02-22T09:02:06.437Z,940.00
2024-02-22T09:03:06.367Z,1072.00
2024-02-22T09:04:06.414Z,1280.00
2024-02-22T09:05:06.437Z,1708.00
2024-02-22T09:06:06.449Z,1804.00
2024-02-22T09:07:06.402Z,1800.00
2024-02-22T09:08:06.436Z,1536.00
2024-02-22T09:09:06.308Z,1364.00
2024-02-22T09:10:06.286Z,1260.00
2024-02-22T09:11:06.379Z,1260.00
2024-02-22T09:12:06.344Z,1228.00
2024-02-22T09:13:06.237Z,1116.00
2024-02-22T09:14:06.277Z,1084.00
2024-02-22T09:15:06.226Z,1072.00
2024-02-22T09:16:06.188Z,1048.00
2024-02-22T09:17:06.255Z,1056.00
2024-02-22T09:18:06.375Z,1128.00
2024-02-22T09:19:06.241Z,1212.00
2024-02-22T09:20:06.227Z,1284.00
2024-02-22T09:21:06.217Z,1416.00
2024-02-22T09:22:06.103Z,1612.00
2024-02-22T09:23:06.275Z,2028.00
2024-02-22T09:24:06.099Z,2772.00
2024-02-22T09:25:06.071Z,3116.00
2024-02-22T09:26:06.125Z,3284.00
2024-02-22T09:27:06.059Z,2952.00
2024-02-22T09:28:06.052Z,2584.00
2024-02-22T09:29:06.022Z,2452.00
2024-02-22T09:30:06.050Z,3032.00
2024-02-22T09:31:06.039Z,3568.00
2024-02-22T09:32:06.027Z,3864.00
2024-02-22T09:33:06.750Z,4072.00
2024-02-22T09:34:06.169Z,4028.00
2024-02-22T09:35:05.978Z,3760.00
2024-02-22T09:36:05.943Z,3508.00
2024-02-22T09:37:05.945Z,3116.00
2024-02-22T09:38:06.391Z,2776.00
2024-02-22T09:39:05.954Z,2668.00
2024-02-22T09:40:05.907Z,2676.00
2024-02-22T09:41:05.910Z,2716.00
2024-02-22T09:42:05.855Z,2788.00
2024-02-22T09:43:05.865Z,2904.00
2024-02-22T09:44:05.847Z,3004.00
2024-02-22T09:45:05.814Z,3032.00
2024-02-22T09:46:05.793Z,2816.00
2024-02-22T09:47:05.842Z,2444.00
2024-02-22T09:48:05.854Z,2220.00
2024-02-22T09:49:08.412Z,2040.00
2024-02-22T09:50:05.802Z,1876.00
2024-02-22T09:51:05.740Z,1740.00
2024-02-22T09:52:05.726Z,1664.00
2024-02-22T09:53:05.747Z,1588.00
2024-02-22T09:54:05.705Z,1540.00
2024-02-22T09:55:05.690Z,1512.00
2024-02-22T09:56:05.726Z,1492.00
2024-02-22T09:57:05.702Z,1452.00
2024-02-22T09:58:05.639Z,1400.00
2024-02-22T09:59:05.738Z,1404.00
2024-02-22T10:00:05.637Z,1444.00
2024-02-22T10:01:05.664Z,1524.00
2024-02-22T10:02:05.714Z,1608.00
2024-02-22T10:03:05.617Z,1652.00
2024-02-22T10:04:05.544Z,1696.00
2024-02-22T10:05:05.657Z,1792.00
2024-02-22T10:06:05.646Z,1972.00
2024-02-22T10:07:05.557Z,2156.00
2024-02-22T10:08:05.542Z,2224.00
2024-02-22T10:09:05.503Z,2200.00
2024-02-22T10:10:05.524Z,2148.00
2024-02-22T10:11:05.567Z,2044.00
2024-02-22T10:12:05.585Z,1956.00
2024-02-22T10:13:06.476Z,1888.00
2024-02-22T10:14:05.572Z,1864.00
2024-02-22T10:15:08.749Z,1928.00
2024-02-22T10:16:05.399Z,1980.00
2024-02-22T10:17:05.465Z,1984.00
2024-02-22T10:18:05.462Z,1940.00
2024-02-22T10:19:05.421Z,1964.00
2024-02-22T10:20:05.411Z,2056.00
2024-02-22T10:21:05.361Z,2136.00
2024-02-22T10:22:05.350Z,2200.00
2024-02-22T10:23:05.340Z,2220.00
2024-02-22T10:24:05.299Z,2204.00
2024-02-22T10:25:05.309Z,2152.00
2024-02-22T10:26:05.321Z,2080.00
2024-02-22T10:27:07.456Z,2032.00
2024-02-22T10:28:05.248Z,2016.00
2024-02-22T10:29:05.287Z,2028.00
2024-02-22T10:30:05.236Z,2288.00
2024-02-22T10:31:05.249Z,2696.00
2024-02-22T10:32:05.225Z,2948.00
2024-02-22T10:33:05.293Z,3216.00
2024-02-22T10:34:05.248Z,3308.00
2024-02-22T10:35:05.207Z,2968.00
2024-02-22T10:36:05.168Z,3056.00
2024-02-22T10:37:05.143Z,2828.00
2024-02-22T10:38:05.390Z,2756.00
2024-02-22T10:39:05.114Z,2612.00
2024-02-22T10:40:05.388Z,2620.00
2024-02-22T10:41:05.130Z,2468.00
2024-02-22T10:42:05.059Z,2256.00
2024-02-22T10:43:05.042Z,2412.00
2024-02-22T10:44:05.084Z,2396.00
2024-02-22T10:45:05.041Z,2212.00
2024-02-22T10:46:05.016Z,2020.00
2024-02-22T10:47:05.008Z,1656.00
2024-02-22T10:48:05.035Z,1360.00
2024-02-22T10:49:05.004Z,1324.00
2024-02-22T10:50:04.988Z,1384.00
2024-02-22T10:51:04.950Z,1476.00
2024-02-22T10:52:04.914Z,1436.00
2024-02-22T10:53:05.174Z,1468.00
2024-02-22T10:54:04.924Z,1548.00
2024-02-22T10:55:04.896Z,1612.00
2024-02-22T10:56:04.930Z,1636.00
2024-02-22T10:57:04.854Z,1676.00
2024-02-22T10:58:04.880Z,1708.00
2024-02-22T10:59:04.900Z,1732.00
2024-02-22T11:00:04.899Z,1732.00
2024-02-22T11:01:04.814Z,1744.00
2024-02-22T11:02:04.837Z,1800.00
2024-02-22T11:03:04.869Z,1812.00
2024-02-22T11:04:04.866Z,1812.00
2024-02-22T11:05:05.079Z,1820.00
2024-02-22T11:06:04.737Z,1744.00
2024-02-22T11:07:04.811Z,1672.00
2024-02-22T11:08:04.738Z,1604.00
2024-02-22T11:09:04.752Z,1536.00
2024-02-22T11:10:04.689Z,1512.00
2024-02-22T11:11:07.159Z,1520.00
2024-02-22T11:12:04.763Z,1540.00
2024-02-22T11:13:04.886Z,1668.00
2024-02-22T11:14:04.697Z,1924.00
2024-02-22T11:15:04.627Z,2248.00
2024-02-22T11:16:04.634Z,2444.00
2024-02-22T11:17:04.607Z,2536.00
2024-02-22T11:18:04.633Z,2520.00
2024-02-22T11:19:04.641Z,2356.00
2024-02-22T11:20:04.583Z,2428.00
2024-02-22T11:21:04.540Z,2476.00
2024-02-22T11:22:04.533Z,2392.00
2024-02-22T11:23:04.603Z,2280.00
2024-02-22T11:24:04.568Z,2240.00
2024-02-22T11:25:04.491Z,2284.00
2024-02-22T11:26:04.576Z,2408.00
2024-02-22T11:27:04.459Z,2468.00
2024-02-22T11:28:04.491Z,2536.00
2024-02-22T11:29:04.477Z,2584.00
2024-02-22T11:30:04.431Z,2600.00
2024-02-22T11:31:04.425Z,2696.00
2024-02-22T11:32:04.449Z,2756.00
2024-02-22T11:33:04.569Z,2940.00
2024-02-22T11:34:04.456Z,2952.00
2024-02-22T11:35:04.620Z,3012.00
2024-02-22T11:36:04.358Z,3060.00
2024-02-22T11:37:04.357Z,3016.00
2024-02-22T11:38:04.516Z,2984.00
2024-02-22T11:39:04.314Z,3096.00
2024-02-22T11:40:04.304Z,3280.00
2024-02-22T11:41:04.357Z,3160.00
2024-02-22T11:42:04.285Z,2980.00
2024-02-22T11:43:04.266Z,2892.00
2024-02-22T11:44:04.287Z,2676.00
2024-02-22T11:45:04.248Z,2296.00
2024-02-22T11:46:04.215Z,2052.00
2024-02-22T11:47:04.294Z,1832.00
2024-02-22T11:48:04.325Z,1648.00
2024-02-22T11:49:04.211Z,1420.00
2024-02-22T11:50:04.209Z,1320.00
2024-02-22T11:51:04.177Z,1320.00
2024-02-22T11:52:04.175Z,1304.00
2024-02-22T11:53:04.867Z,1316.00
2024-02-22T11:54:04.127Z,1304.00
2024-02-22T11:55:04.201Z,1268.00
2024-02-22T11:56:04.148Z,1324.00
2024-02-22T11:57:04.157Z,1428.00
2024-02-22T11:58:04.193Z,1584.00
2024-02-22T11:59:04.222Z,1644.00
2024-02-22T12:00:04.073Z,1572.00
2024-02-22T12:01:04.108Z,1584.00
2024-02-22T12:02:04.047Z,1680.00
2024-02-22T12:03:03.998Z,1656.00
2024-02-22T12:04:04.053Z,1560.00
2024-02-22T12:05:04.184Z,1708.00
2024-02-22T12:06:04.182Z,1900.00
2024-02-22T12:07:04.157Z,2048.00
2024-02-22T12:08:04.053Z,2188.00
2024-02-22T12:09:03.994Z,2088.00
2024-02-22T12:10:03.964Z,2020.00
2024-02-22T12:11:04.060Z,1980.00
2024-02-22T12:12:04.112Z,1832.00
2024-02-22T12:13:03.876Z,1672.00
2024-02-22T12:14:04.009Z,1696.00
2024-02-22T12:15:03.849Z,1600.00
2024-02-22T12:16:03.881Z,1496.00
2024-02-22T12:17:03.863Z,1500.00
2024-02-22T12:18:03.850Z,1704.00
2024-02-22T12:19:03.807Z,1940.00
2024-02-22T12:20:03.924Z,2044.00
2024-02-22T12:21:03.778Z,2056.00
2024-02-22T12:22:03.747Z,1892.00
2024-02-22T12:23:03.763Z,1780.00
2024-02-22T12:24:03.738Z,1740.00
2024-02-22T12:25:03.722Z,1732.00
2024-02-22T12:26:03.811Z,1632.00
2024-02-22T12:27:03.698Z,1560.00
2024-02-22T12:28:03.693Z,1476.00
2024-02-22T12:29:03.707Z,1336.00
2024-02-22T12:30:03.693Z,1228.00
2024-02-22T12:31:03.633Z,1256.00
2024-02-22T12:32:03.705Z,1456.00
2024-02-22T12:33:03.772Z,1680.00
2024-02-22T12:34:03.955Z,1568.00
2024-02-22T12:35:03.643Z,1492.00
2024-02-22T12:36:03.621Z,1436.00
2024-02-22T12:37:03.545Z,1380.00
2024-02-22T12:38:03.609Z,1412.00
2024-02-22T12:39:03.545Z,1440.00
2024-02-22T12:40:03.528Z,1228.00
2024-02-22T12:41:03.536Z,1084.00
2024-02-22T12:42:03.523Z,988.00
2024-02-22T12:43:03.484Z,908.00
2024-02-22T12:44:03.587Z,820.00
2024-02-22T12:45:03.452Z,760.00
2024-02-22T12:46:03.490Z,748.00